createdAt,value
2023-01-11T00:00:48.625Z,20.40
2023-01-11T00:03:16.068Z,12.63
2023-01-11T00:05:44.213Z,17.65
2023-01-11T00:08:11.797Z,13.23
2023-01-11T00:10:38.890Z,18.23
2023-01-11T00:13:06.182Z,15.52
2023-01-11T00:15:33.082Z,16.63
2023-01-11T00:17:59.757Z,13.02
2023-01-11T00:20:26.525Z,16.50
2023-01-11T00:22:53.240Z,13.95
2023-01-11T00:25:20.110Z,19.30
2023-01-11T00:27:49.716Z,13.02
2023-01-11T00:30:17.716Z,21.23
2023-01-11T00:32:44.653Z,16.52
2023-01-11T00:35:11.500Z,17.35
2023-01-11T00:37:38.530Z,13.02
2023-01-11T00:40:06.112Z,12.00
2023-01-11T00:42:51.503Z,19.92
2023-01-11T00:45:36.885Z,13.77
2023-01-11T00:48:05.975Z,15.45
2023-01-11T00:50:34.942Z,12.35
2023-01-11T00:53:01.665Z,17.83
2023-01-11T00:55:28.716Z,18.52
2023-01-11T00:57:55.381Z,14.20
2023-01-11T01:00:22.267Z,16.30
2023-01-11T01:02:49.754Z,9.73
2023-01-11T01:05:17.924Z,12.90
2023-01-11T01:07:45.417Z,13.00
2023-01-11T01:10:13.883Z,10.77
2023-01-11T01:12:59.239Z,14.50
2023-01-11T01:15:26.202Z,12.52
2023-01-11T01:17:55.266Z,10.48
2023-01-11T01:20:23.631Z,10.77
2023-01-11T01:22:50.655Z,10.95
2023-01-11T01:25:17.607Z,8.43
2023-01-11T01:27:44.414Z,7.32
2023-01-11T01:30:11.766Z,7.32
2023-01-11T01:32:38.448Z,11.13
2023-01-11T01:35:05.487Z,10.27
2023-01-11T01:37:32.199Z,10.38
2023-01-11T01:39:58.920Z,6.47
2023-01-11T01:42:25.710Z,9.63
2023-01-11T01:45:06.209Z,6.20
2023-01-11T01:47:38.649Z,5.00
2023-01-11T01:50:13.259Z,3.97
2023-01-11T01:52:40.593Z,5.72
2023-01-11T01:55:12.640Z,4.30
2023-01-11T01:57:42.680Z,6.47
2023-01-11T02:00:10.660Z,4.85
2023-01-11T02:02:38.719Z,5.00
2023-01-11T02:05:06.834Z,5.40
2023-01-11T02:07:36.042Z,5.57
2023-01-11T02:10:21.316Z,3.70
2023-01-11T02:12:58.388Z,7.25
2023-01-11T02:15:25.838Z,5.97
2023-01-11T02:17:52.627Z,3.95
2023-01-11T02:20:38.266Z,2.92
2023-01-11T02:23:31.235Z,3.78
2023-01-11T02:26:16.249Z,3.53
2023-01-11T02:28:57.772Z,3.75
2023-01-11T02:34:41.791Z,4.40
2023-01-11T02:37:29.968Z,1.83
2023-01-11T02:40:09.322Z,4.13
2023-01-11T02:42:54.754Z,2.25
2023-01-11T02:45:26.906Z,2.20
2023-01-11T02:48:07.038Z,2.90
2023-01-11T02:50:41.585Z,2.90
2023-01-11T02:53:12.225Z,4.45
2023-01-11T02:55:43.186Z,2.97
2023-01-11T02:58:12.675Z,1.65
2023-01-11T03:00:41.078Z,2.05
2023-01-11T03:03:09.325Z,1.60
2023-01-11T03:05:41.982Z,1.30
2023-01-11T03:08:26.942Z,2.70
2023-01-11T03:11:05.367Z,2.60
2023-01-11T03:13:45.940Z,1.42
2023-01-11T03:16:27.869Z,4.07
2023-01-11T03:19:45.068Z,3.10
2023-01-11T03:22:25.226Z,1.77
2023-01-11T03:25:06.879Z,1.65
2023-01-11T03:27:52.555Z,1.75
2023-01-11T03:30:31.807Z,2.92
2023-01-11T03:33:14.760Z,1.55
2023-01-11T03:36:11.407Z,0.80
2023-01-11T03:38:57.582Z,2.50
2023-01-11T03:41:28.441Z,1.70
2023-01-11T03:43:57.236Z,0.70
2023-01-11T03:46:48.367Z,0.80
2023-01-11T03:49:25.045Z,2.08
2023-01-11T03:51:52.846Z,1.70
2023-01-11T03:54:25.454Z,2.00
2023-01-11T03:57:14.201Z,1.77
2023-01-11T03:59:41.326Z,1.17
2023-01-11T04:02:26.286Z,1.00
2023-01-11T04:04:53.023Z,2.22
2023-01-11T04:07:19.854Z,1.50
2023-01-11T04:09:46.910Z,2.58
2023-01-11T04:12:13.555Z,1.00
2023-01-11T04:14:40.209Z,2.03
2023-01-11T04:17:06.940Z,0.63
2023-01-11T04:19:33.624Z,0.85
2023-01-11T04:22:00.282Z,1.08
2023-01-11T04:24:26.937Z,1.73
2023-01-11T04:26:53.576Z,2.00
2023-01-11T04:29:20.293Z,1.25
2023-01-11T04:31:46.978Z,0.90
2023-01-11T04:34:13.919Z,0.50
2023-01-11T04:36:40.977Z,1.52
2023-01-11T04:39:10.606Z,2.08
2023-01-11T04:41:57.492Z,0.82
2023-01-11T04:44:24.643Z,0.40
2023-01-11T04:46:51.344Z,0.35
2023-01-11T04:49:18.020Z,0.68
2023-01-11T04:51:44.694Z,0.98
2023-01-11T04:54:11.402Z,0.50
2023-01-11T04:56:38.199Z,0.98
2023-01-11T04:59:04.904Z,2.47
2023-01-11T05:01:31.759Z,1.85
2023-01-11T05:03:58.460Z,0.30
2023-01-11T05:06:25.851Z,0.32
2023-01-11T05:08:52.527Z,0.45
2023-01-11T05:11:19.297Z,3.80
2023-01-11T05:13:46.216Z,0.80
2023-01-11T05:16:21.489Z,1.55
2023-01-11T05:18:56.554Z,0.20
2023-01-11T05:21:32.578Z,0.30
2023-01-11T05:24:00.791Z,0.20
2023-01-11T05:26:29.992Z,0.47
2023-01-11T05:28:59.567Z,0.35
2023-01-11T05:31:27.020Z,0.90
2023-01-11T05:33:56.165Z,0.43
2023-01-11T05:36:24.220Z,0.50
2023-01-11T05:38:52.867Z,0.38
2023-01-11T05:41:22.731Z,1.67
2023-01-11T05:44:09.605Z,0.60
2023-01-11T05:46:38.557Z,2.17
2023-01-11T05:49:06.467Z,0.20
2023-01-11T05:51:33.406Z,0.95
2023-01-11T05:54:01.468Z,0.30
2023-01-11T05:56:29.156Z,0.17
2023-01-11T05:58:56.192Z,0.52
2023-01-11T06:01:24.543Z,1.20
2023-01-11T06:03:51.810Z,0.28
2023-01-11T06:06:19.766Z,0.20
2023-01-11T06:08:46.439Z,0.70
2023-01-11T06:11:14.619Z,0.20
2023-01-11T06:13:41.642Z,1.08
2023-01-11T06:16:12.421Z,0.55
2023-01-11T06:18:41.494Z,0.82
2023-01-11T06:21:09.285Z,0.28
2023-01-11T06:23:38.291Z,0.85
2023-01-11T06:26:07.906Z,2.03
2023-01-11T06:28:35.517Z,0.38
2023-01-11T06:31:02.710Z,0.55
2023-01-11T06:33:30.658Z,0.88
2023-01-11T06:35:59.280Z,0.40
2023-01-11T06:38:26.491Z,0.50
2023-01-11T06:40:57.854Z,1.45
2023-01-11T06:43:26.236Z,1.35
2023-01-11T06:45:53.300Z,22.83
2023-01-11T06:48:21.775Z,2.88
2023-01-11T06:50:49.959Z,0.45
2023-01-11T06:53:16.833Z,0.88
2023-01-11T06:55:43.862Z,0.70
2023-01-11T06:58:10.906Z,1.40
2023-01-11T07:00:37.842Z,2.47
2023-01-11T07:03:06.092Z,1.27
2023-01-11T07:05:34.003Z,0.68
2023-01-11T07:08:01.259Z,5.57
2023-01-11T07:10:28.305Z,2.35
2023-01-11T07:12:55.148Z,1.05
2023-01-11T07:15:22.028Z,1.27
2023-01-11T07:17:57.687Z,3.35
2023-01-11T07:20:25.681Z,3.20
2023-01-11T07:22:56.173Z,1.58
2023-01-11T07:25:22.841Z,1.30
2023-01-11T07:27:49.475Z,4.32
2023-01-11T07:30:16.349Z,5.40
2023-01-11T07:32:43.141Z,11.13
2023-01-11T07:35:09.934Z,7.40
2023-01-11T07:37:38.110Z,8.45
2023-01-11T07:40:05.546Z,15.40
2023-01-11T07:43:04.726Z,4.93
2023-01-11T07:45:44.770Z,12.70
2023-01-11T07:48:12.971Z,16.98
2023-01-11T07:50:43.442Z,10.88
2023-01-11T07:53:11.427Z,13.75
2023-01-11T07:55:39.651Z,13.23
2023-01-11T07:58:07.640Z,12.63
2023-01-11T08:00:34.370Z,15.85
2023-01-11T08:03:02.302Z,14.32
2023-01-11T08:05:29.635Z,13.55
2023-01-11T08:07:56.308Z,19.83
2023-01-11T08:10:23.135Z,18.65
2023-01-11T08:13:08.961Z,12.15
2023-01-11T08:15:36.736Z,18.83
2023-01-11T08:18:06.564Z,14.93
2023-01-11T08:20:33.338Z,11.75
2023-01-11T08:23:04.790Z,11.68
2023-01-11T08:28:03.727Z,20.30
2023-01-11T08:30:30.977Z,20.55
2023-01-11T08:33:00.456Z,17.48
2023-01-11T08:35:27.128Z,15.43
2023-01-11T08:37:53.805Z,19.58
2023-01-11T08:40:23.607Z,17.42
2023-01-11T08:42:54.949Z,15.93
2023-01-11T08:45:22.204Z,11.48
2023-01-11T08:47:50.909Z,19.38
2023-01-11T08:50:18.704Z,22.90
2023-01-11T08:52:46.179Z,13.93
2023-01-11T08:55:12.880Z,18.42
2023-01-11T08:57:39.584Z,15.60
2023-01-11T09:00:08.271Z,22.95
2023-01-11T09:02:35.155Z,22.67
2023-01-11T09:05:01.960Z,24.80
2023-01-11T09:07:28.792Z,22.10
2023-01-11T09:09:55.444Z,22.23
2023-01-11T09:12:22.133Z,25.98
2023-01-11T09:14:48.830Z,22.85
2023-01-11T09:17:15.475Z,21.25
2023-01-11T09:19:42.291Z,19.05
2023-01-11T09:22:08.949Z,26.98
2023-01-11T09:24:35.643Z,23.30
2023-01-11T09:27:02.627Z,30.55
2023-01-11T09:29:29.483Z,25.02
2023-01-11T09:31:56.298Z,36.45
2023-01-11T09:34:24.928Z,27.35
2023-01-11T09:36:51.597Z,21.13
2023-01-11T09:39:20.580Z,32.63
2023-01-11T09:42:16.510Z,20.52
2023-01-11T09:44:51.199Z,27.10
2023-01-11T09:47:29.336Z,31.33
2023-01-11T09:50:00.367Z,26.83
2023-01-11T09:52:32.963Z,35.53
2023-01-11T09:55:00.267Z,28.23
2023-01-11T09:57:47.882Z,20.05
2023-01-11T10:00:38.140Z,31.27
2023-01-11T10:03:34.266Z,33.08
2023-01-11T10:06:15.077Z,33.40
2023-01-11T10:18:31.859Z,21.33
2023-01-11T10:18:58.281Z,27.77
2023-01-11T10:21:44.091Z,32.15
2023-01-11T10:24:21.902Z,28.48
2023-01-11T10:26:52.894Z,32.08
2023-01-11T10:29:41.946Z,23.85
2023-01-11T10:32:34.650Z,26.15
2023-01-11T10:35:17.980Z,35.60
2023-01-11T10:38:02.165Z,37.58
2023-01-11T10:41:03.253Z,30.30
2023-01-11T10:43:33.936Z,35.95
2023-01-11T10:46:15.432Z,29.60
2023-01-11T10:48:45.042Z,27.67
2023-01-11T10:51:23.186Z,26.98
2023-01-11T10:54:17.901Z,35.70
2023-01-11T10:57:02.518Z,38.50
2023-01-11T11:00:08.903Z,27.70
2023-01-11T11:03:13.185Z,33.30
2023-01-11T11:06:22.409Z,28.90
2023-01-11T11:08:58.310Z,31.27
2023-01-11T11:11:37.411Z,23.23
2023-01-11T11:14:10.381Z,27.13
2023-01-11T11:16:46.963Z,31.92
2023-01-11T11:19:20.122Z,36.30
2023-01-11T11:21:48.195Z,27.00
2023-01-11T11:24:27.612Z,28.92
2023-01-11T11:27:23.482Z,24.83
2023-01-11T11:29:53.184Z,24.85
2023-01-11T11:32:36.439Z,36.75
2023-01-11T11:35:04.609Z,25.05
2023-01-11T11:37:44.511Z,24.52
2023-01-11T11:40:34.336Z,21.17
2023-01-11T11:43:21.320Z,28.77
2023-01-11T11:46:20.329Z,36.95
2023-01-11T11:49:32.139Z,28.52
2023-01-11T11:52:03.980Z,31.77
2023-01-11T11:54:47.485Z,28.35
2023-01-11T11:57:21.715Z,26.05
2023-01-11T11:59:50.536Z,26.15
2023-01-11T12:02:31.260Z,25.58
2023-01-11T12:05:07.369Z,30.45
2023-01-11T12:07:49.735Z,38.97
2023-01-11T12:10:23.660Z,23.27
2023-01-11T12:12:59.411Z,39.10
2023-01-11T12:15:31.020Z,27.30
2023-01-11T12:18:16.778Z,30.85
2023-01-11T12:20:44.699Z,23.88
2023-01-11T12:23:19.215Z,28.48
2023-01-11T12:26:01.559Z,27.70
2023-01-11T12:28:37.236Z,28.00
2023-01-11T12:31:08.581Z,28.80
2023-01-11T12:33:46.928Z,25.13
2023-01-11T12:36:48.084Z,18.27
2023-01-11T12:39:38.616Z,28.42
2023-01-11T12:42:51.095Z,29.40
2023-01-11T12:45:37.542Z,24.00
2023-01-11T12:48:30.904Z,25.42
2023-01-11T12:51:35.428Z,25.40
2023-01-11T12:54:28.382Z,35.22
2023-01-11T12:57:13.211Z,28.27
2023-01-11T13:00:07.539Z,27.48
2023-01-11T13:03:29.058Z,24.42
2023-01-11T13:06:14.144Z,21.85
2023-01-11T13:09:02.048Z,28.88
2023-01-11T13:11:48.828Z,25.17
2023-01-11T13:14:53.041Z,27.85
2023-01-11T13:17:36.353Z,27.98
2023-01-11T13:20:25.445Z,21.38
2023-01-11T13:23:06.184Z,21.75
2023-01-11T13:25:36.487Z,25.07
2023-01-11T13:28:28.717Z,24.75
2023-01-11T13:30:57.913Z,31.35
2023-01-11T13:33:27.887Z,30.13
2023-01-11T13:36:15.043Z,29.67
2023-01-11T13:39:15.248Z,22.27
2023-01-11T13:41:47.221Z,32.83
2023-01-11T13:44:16.600Z,27.85
2023-01-11T13:47:00.027Z,29.10
2023-01-11T13:49:32.522Z,24.90
2023-01-11T13:52:03.895Z,22.00
2023-01-11T13:54:55.303Z,23.25
2023-01-11T13:58:03.183Z,21.75
2023-01-11T14:00:37.861Z,29.98
2023-01-11T14:03:23.504Z,28.13
2023-01-11T14:06:03.179Z,24.90
2023-01-11T14:08:51.033Z,33.63
2023-01-11T14:11:44.986Z,24.85
2023-01-11T14:14:18.193Z,19.25
2023-01-11T14:17:03.518Z,24.90
2023-01-11T14:19:39.647Z,20.00
2023-01-11T14:22:28.165Z,26.00
2023-01-11T14:25:03.588Z,29.98
2023-01-11T14:27:42.155Z,24.23
2023-01-11T14:30:34.563Z,25.27
2023-01-11T14:33:16.379Z,27.50
2023-01-11T14:36:15.746Z,21.15
2023-01-11T14:39:15.750Z,15.15
2023-01-11T14:42:16.259Z,27.65
2023-01-11T14:45:16.830Z,29.98
2023-01-11T14:48:06.520Z,19.80
2023-01-11T14:50:50.504Z,27.70
2023-01-11T14:53:22.467Z,18.38
2023-01-11T14:55:49.341Z,23.85
2023-01-11T14:58:27.874Z,40.10
2023-01-11T15:00:54.463Z,24.30
2023-01-11T15:03:21.270Z,29.77
2023-01-11T15:06:13.441Z,22.73
2023-01-11T15:08:52.511Z,17.90
2023-01-11T15:11:32.666Z,27.92
2023-01-11T15:14:04.377Z,21.08
2023-01-11T15:16:52.138Z,14.15
2023-01-11T15:19:33.855Z,20.90
2023-01-11T15:22:02.863Z,25.17
2023-01-11T15:24:31.738Z,26.63
2023-01-11T15:27:00.345Z,26.85
2023-01-11T15:29:41.175Z,18.58
2023-01-11T15:32:14.446Z,21.30
2023-01-11T15:34:43.735Z,24.92
2023-01-11T15:37:25.185Z,24.23
2023-01-11T15:39:57.977Z,19.77
2023-01-11T15:42:58.571Z,22.38
2023-01-11T15:46:12.423Z,29.52
2023-01-11T15:48:51.057Z,23.65
2023-01-11T15:51:31.444Z,20.33
2023-01-11T15:54:19.023Z,20.27
2023-01-11T15:56:54.549Z,25.88
2023-01-11T15:59:54.941Z,27.75
2023-01-11T16:02:53.908Z,26.60
2023-01-11T16:05:29.874Z,26.00
2023-01-11T16:08:23.895Z,24.38
2023-01-11T16:11:02.334Z,18.70
2023-01-11T16:13:51.340Z,23.05
2023-01-11T16:16:22.668Z,20.02
2023-01-11T16:19:00.246Z,18.98
2023-01-11T16:21:33.951Z,21.02
2023-01-11T16:24:15.722Z,17.23
2023-01-11T16:26:42.649Z,23.45
2023-01-11T16:29:23.440Z,15.82
2023-01-11T16:31:57.495Z,20.88
2023-01-11T16:34:25.574Z,16.80
2023-01-11T16:36:52.321Z,18.02
2023-01-11T16:39:23.036Z,14.95
2023-01-11T16:42:00.630Z,14.10
2023-01-11T16:44:42.814Z,15.48
2023-01-11T16:47:13.610Z,18.35
2023-01-11T16:49:43.071Z,19.23
2023-01-11T16:52:28.090Z,25.10
2023-01-11T16:55:01.626Z,20.08
2023-01-11T16:57:32.323Z,18.45
2023-01-11T17:00:06.437Z,25.52
2023-01-11T17:02:39.380Z,17.83
2023-01-11T17:05:21.203Z,19.20
2023-01-11T17:07:47.948Z,15.82
2023-01-11T17:10:19.291Z,19.77
2023-01-11T17:15:56.644Z,22.10
2023-01-11T17:18:23.490Z,18.77
2023-01-11T17:20:53.582Z,20.65
2023-01-11T17:23:20.462Z,19.30
2023-01-11T17:25:55.804Z,15.57
2023-01-11T17:28:22.788Z,26.05
2023-01-11T17:30:52.116Z,20.13
2023-01-11T17:33:27.857Z,22.95
2023-01-11T17:35:55.426Z,22.33
2023-01-11T17:38:25.202Z,32.22
2023-01-11T17:40:53.111Z,24.00
2023-01-11T17:43:47.062Z,23.92
2023-01-11T17:46:24.525Z,21.70
2023-01-11T17:48:54.079Z,20.20
2023-01-11T17:51:25.902Z,16.80
2023-01-11T17:53:53.004Z,39.03
2023-01-11T17:56:38.065Z,22.30
2023-01-11T17:59:21.209Z,20.25
2023-01-11T18:01:50.317Z,17.23
2023-01-11T18:04:19.666Z,21.42
2023-01-11T18:06:48.488Z,26.30
2023-01-11T18:09:30.888Z,22.25
2023-01-11T18:12:18.328Z,31.50
2023-01-11T18:14:54.539Z,17.77
2023-01-11T18:17:30.814Z,20.63
2023-01-11T18:19:57.614Z,31.15
2023-01-11T18:22:33.247Z,22.30
2023-01-11T18:25:04.133Z,18.63
2023-01-11T18:27:35.300Z,30.27
2023-01-11T18:30:06.489Z,30.45
2023-01-11T18:32:38.399Z,23.60
2023-01-11T18:35:12.724Z,23.15
2023-01-11T18:37:39.382Z,14.45
2023-01-11T18:40:10.623Z,14.95
2023-01-11T18:42:37.289Z,25.73
2023-01-11T18:45:04.287Z,20.45
2023-01-11T18:47:31.015Z,19.50
2023-01-11T18:49:57.872Z,21.58
2023-01-11T18:52:27.486Z,21.65
2023-01-11T18:54:55.447Z,25.10
2023-01-11T18:57:23.576Z,17.33
2023-01-11T18:59:52.341Z,25.33
2023-01-11T19:02:27.119Z,24.77
2023-01-11T19:04:56.087Z,34.33
2023-01-11T19:07:24.237Z,23.48
2023-01-11T19:09:51.503Z,20.92
2023-01-11T19:12:18.449Z,20.30
2023-01-11T19:14:45.211Z,20.90
2023-01-11T19:17:12.677Z,23.30
2023-01-11T19:19:40.012Z,20.88
2023-01-11T19:22:07.458Z,16.60
2023-01-11T19:24:34.244Z,21.80
2023-01-11T19:27:00.994Z,20.60
2023-01-11T19:29:28.406Z,20.92
2023-01-11T19:31:57.904Z,18.83
2023-01-11T19:34:24.747Z,16.30
2023-01-11T19:36:52.281Z,20.48
2023-01-11T19:39:19.285Z,18.02
2023-01-11T19:41:55.034Z,27.10
2023-01-11T19:44:22.328Z,20.38
2023-01-11T19:46:53.119Z,17.20
2023-01-11T19:49:23.906Z,23.08
2023-01-11T19:51:50.928Z,22.65
2023-01-11T19:54:20.767Z,17.88
2023-01-11T19:56:49.288Z,20.33
2023-01-11T19:59:16.222Z,18.50
2023-01-11T20:01:43.799Z,18.05
2023-01-11T20:04:12.732Z,14.93
2023-01-11T20:06:50.332Z,20.58
2023-01-11T20:09:18.747Z,21.38
2023-01-11T20:11:46.492Z,21.13
2023-01-11T20:14:13.295Z,16.02
2023-01-11T20:16:39.960Z,23.75
2023-01-11T20:19:06.606Z,21.48
2023-01-11T20:21:34.270Z,14.90
2023-01-11T20:24:04.991Z,20.55
2023-01-11T20:26:33.870Z,24.40
2023-01-11T20:29:01.268Z,18.35
2023-01-11T20:31:32.059Z,18.90
2023-01-11T20:34:00.438Z,12.90
2023-01-11T20:36:27.185Z,19.30
2023-01-11T20:38:55.359Z,20.08
2023-01-11T20:41:43.735Z,19.63
2023-01-11T20:44:11.933Z,23.58
2023-01-11T20:46:38.885Z,20.20
2023-01-11T20:49:06.563Z,27.83
2023-01-11T20:51:33.473Z,24.23
2023-01-11T20:54:00.646Z,22.58
2023-01-11T20:56:27.282Z,21.90
2023-01-11T20:58:54.165Z,19.58
2023-01-11T21:01:27.352Z,29.02
2023-01-11T21:03:57.155Z,18.05
2023-01-11T21:06:24.228Z,24.45
2023-01-11T21:08:57.922Z,23.58
2023-01-11T21:11:25.314Z,17.23
2023-01-11T21:13:55.823Z,23.83
2023-01-11T21:16:24.579Z,23.50
2023-01-11T21:18:56.050Z,12.32
2023-01-11T21:21:22.965Z,19.05
2023-01-11T21:23:57.408Z,16.77
2023-01-11T21:26:25.941Z,18.70
2023-01-11T21:29:00.764Z,17.70
2023-01-11T21:31:33.536Z,21.02
2023-01-11T21:34:00.332Z,20.27
2023-01-11T21:36:30.059Z,21.63
2023-01-11T21:38:58.418Z,18.58
2023-01-11T21:41:46.295Z,21.23
2023-01-11T21:44:13.968Z,29.20
2023-01-11T21:46:41.267Z,10.88
2023-01-11T21:49:08.574Z,21.35
2023-01-11T21:51:35.410Z,23.75
2023-01-11T21:54:07.816Z,21.25
2023-01-11T21:56:35.160Z,27.05
2023-01-11T21:59:01.919Z,24.65
2023-01-11T22:01:28.870Z,23.15
2023-01-11T22:03:56.203Z,18.65
2023-01-11T22:06:23.360Z,18.13
2023-01-11T22:08:50.134Z,18.05
2023-01-11T22:11:18.058Z,19.95
2023-01-11T22:13:45.303Z,27.60
2023-01-11T22:16:17.419Z,22.83
2023-01-11T22:18:45.722Z,17.58
2023-01-11T22:21:15.117Z,15.77
2023-01-11T22:23:42.047Z,18.88
2023-01-11T22:26:11.289Z,22.90
2023-01-11T22:28:58.162Z,23.20
2023-01-11T22:31:27.346Z,20.58
2023-01-11T22:33:55.176Z,17.45
2023-01-11T22:36:23.190Z,20.95
2023-01-11T22:38:50.302Z,14.30
2023-01-11T22:41:17.544Z,21.20
2023-01-11T22:43:45.181Z,25.38
2023-01-11T22:46:20.575Z,24.92
2023-01-11T22:48:48.595Z,24.98
2023-01-11T22:51:17.190Z,20.15
2023-01-11T22:53:46.801Z,18.67
2023-01-11T22:56:15.183Z,20.42
2023-01-11T22:58:41.812Z,20.75
2023-01-11T23:01:36.371Z,21.88
2023-01-11T23:04:04.356Z,24.23
2023-01-11T23:06:36.696Z,23.67
2023-01-11T23:09:05.130Z,16.38
2023-01-11T23:11:55.689Z,22.83
2023-01-11T23:14:26.605Z,20.25
2023-01-11T23:16:53.357Z,16.10
2023-01-11T23:19:20.487Z,19.92
2023-01-11T23:21:47.749Z,16.92
2023-01-11T23:24:16.230Z,28.50
2023-01-11T23:26:43.836Z,29.00
2023-01-11T23:29:10.599Z,19.02
2023-01-11T23:31:37.676Z,21.10
2023-01-11T23:34:07.799Z,18.38
2023-01-11T23:36:37.623Z,21.75
2023-01-11T23:39:06.348Z,20.02
2023-01-11T23:41:51.509Z,20.33
2023-01-11T23:44:18.611Z,18.85
2023-01-11T23:47:04.742Z,22.83
2023-01-11T23:49:32.440Z,21.27
2023-01-11T23:51:59.872Z,19.50
2023-01-11T23:54:28.592Z,17.95
2023-01-11T23:56:56.124Z,25.30
2023-01-11T23:59:23.306Z,25.70
